createdAt,value
2023-02-14T00:01:33.512Z,10.63
2023-02-14T00:04:01.786Z,10.20
2023-02-14T00:06:35.262Z,9.13
2023-02-14T00:09:03.792Z,9.80
2023-02-14T00:11:31.773Z,27.83
2023-02-14T00:14:17.785Z,27.10
2023-02-14T00:16:46.049Z,27.73
2023-02-14T00:19:15.922Z,27.43
2023-02-14T00:21:45.743Z,25.03
2023-02-14T00:24:15.809Z,25.03
2023-02-14T00:26:44.290Z,27.85
2023-02-14T00:29:14.437Z,27.77
2023-02-14T00:31:43.143Z,10.70
2023-02-14T00:34:12.164Z,10.60
2023-02-14T00:36:40.682Z,11.40
2023-02-14T00:39:12.695Z,9.93
2023-02-14T00:41:41.153Z,11.20
2023-02-14T00:44:10.297Z,13.67
2023-02-14T00:46:38.687Z,10.50
2023-02-14T00:49:06.887Z,9.97
2023-02-14T00:51:34.952Z,9.90
2023-02-14T00:54:03.419Z,9.60
2023-02-14T00:56:33.379Z,10.80
2023-02-14T00:59:01.402Z,10.27
2023-02-14T01:01:29.621Z,10.00
2023-02-14T01:03:58.976Z,10.20
2023-02-14T01:06:26.980Z,10.10
2023-02-14T01:08:54.959Z,10.60
2023-02-14T01:11:25.200Z,9.80
2023-02-14T01:13:58.820Z,9.47
2023-02-14T01:16:28.878Z,8.83
2023-02-14T01:18:57.357Z,9.67
2023-02-14T01:21:26.969Z,8.77
2023-02-14T01:23:57.614Z,7.97
2023-02-14T01:26:27.290Z,9.57
2023-02-14T01:28:56.892Z,8.47
2023-02-14T01:31:26.726Z,9.40
2023-02-14T01:33:55.882Z,8.30
2023-02-14T01:36:25.792Z,7.80
2023-02-14T01:38:55.914Z,7.43
2023-02-14T01:41:25.659Z,8.27
2023-02-14T01:43:58.931Z,8.80
2023-02-14T01:46:29.157Z,7.43
2023-02-14T01:49:02.325Z,8.60
2023-02-14T01:51:33.462Z,6.90
2023-02-14T01:54:02.388Z,7.70
2023-02-14T01:56:35.451Z,7.40
2023-02-14T01:59:09.274Z,7.60
2023-02-14T02:01:37.625Z,23.67
2023-02-14T02:04:11.035Z,9.43
2023-02-14T02:06:42.072Z,13.10
2023-02-14T02:09:15.123Z,26.33
2023-02-14T02:11:43.734Z,28.40
2023-02-14T02:14:16.026Z,28.17
2023-02-14T02:17:17.246Z,26.93
2023-02-14T02:20:22.761Z,27.73
2023-02-14T02:23:45.045Z,28.57
2023-02-14T02:26:42.768Z,27.23
2023-02-14T02:29:33.640Z,27.17
2023-02-14T02:32:36.476Z,24.60
2023-02-14T02:35:26.512Z,23.43
2023-02-14T02:38:05.850Z,6.23
2023-02-14T02:40:48.294Z,6.73
2023-02-14T02:43:29.221Z,6.63
2023-02-14T02:46:19.591Z,19.03
2023-02-14T02:48:55.574Z,18.87
2023-02-14T02:51:50.802Z,18.83
2023-02-14T02:54:25.800Z,20.20
2023-02-14T02:56:58.765Z,20.40
2023-02-14T02:59:30.787Z,21.17
2023-02-14T03:02:03.342Z,19.87
2023-02-14T03:04:53.152Z,19.93
2023-02-14T03:07:36.963Z,19.30
2023-02-14T03:10:10.411Z,20.40
2023-02-14T03:13:11.113Z,22.17
2023-02-14T03:16:12.112Z,24.03
2023-02-14T03:19:06.740Z,22.40
2023-02-14T03:21:44.580Z,21.30
2023-02-14T03:24:25.886Z,21.50
2023-02-14T03:27:00.851Z,21.17
2023-02-14T03:29:37.406Z,20.87
2023-02-14T03:32:12.566Z,21.20
2023-02-14T03:34:53.726Z,22.70
2023-02-14T03:37:27.521Z,22.30
2023-02-14T03:40:05.751Z,24.10
2023-02-14T03:42:38.996Z,24.57
2023-02-14T03:45:12.093Z,23.87
2023-02-14T03:47:42.313Z,24.37
2023-02-14T03:50:14.559Z,23.07
2023-02-14T03:52:44.841Z,20.97
2023-02-14T03:55:16.511Z,20.07
2023-02-14T03:57:51.208Z,19.47
2023-02-14T04:00:20.287Z,17.10
2023-02-14T04:02:52.483Z,16.70
2023-02-14T04:05:26.165Z,15.23
2023-02-14T04:07:55.928Z,15.80
2023-02-14T04:10:26.463Z,13.13
2023-02-14T04:12:54.555Z,12.00
2023-02-14T04:15:22.841Z,12.10
2023-02-14T04:18:08.382Z,10.90
2023-02-14T04:20:37.226Z,10.40
2023-02-14T04:23:05.248Z,10.30
2023-02-14T04:25:34.589Z,2.97
2023-02-14T04:28:02.611Z,2.90
2023-02-14T04:30:30.656Z,2.50
2023-02-14T04:32:58.644Z,10.00
2023-02-14T04:35:26.778Z,11.70
2023-02-14T04:37:54.776Z,10.53
2023-02-14T04:40:23.031Z,10.67
2023-02-14T04:42:52.377Z,11.20
2023-02-14T04:45:20.483Z,11.40
2023-02-14T04:47:48.607Z,10.80
2023-02-14T04:50:16.672Z,11.07
2023-02-14T04:52:44.840Z,10.30
2023-02-14T04:55:13.011Z,10.37
2023-02-14T04:57:41.076Z,10.20
2023-02-14T05:00:11.551Z,9.63
2023-02-14T05:02:39.551Z,9.57
2023-02-14T05:05:08.531Z,9.50
2023-02-14T05:07:36.515Z,9.30
2023-02-14T05:10:04.980Z,8.60
2023-02-14T05:12:33.202Z,8.83
2023-02-14T05:15:01.217Z,9.30
2023-02-14T05:17:30.533Z,9.97
2023-02-14T05:19:58.520Z,10.63
2023-02-14T05:22:26.682Z,9.57
2023-02-14T05:24:54.658Z,9.57
2023-02-14T05:27:22.699Z,9.73
2023-02-14T05:29:50.748Z,9.73
2023-02-14T05:32:18.781Z,8.50
2023-02-14T05:34:48.104Z,9.00
2023-02-14T05:37:16.154Z,9.27
2023-02-14T05:39:44.098Z,9.93
2023-02-14T05:42:12.069Z,9.47
2023-02-14T05:44:40.134Z,9.43
2023-02-14T05:47:08.079Z,10.30
2023-02-14T05:49:36.375Z,10.53
2023-02-14T05:52:06.151Z,9.03
2023-02-14T05:54:34.155Z,9.47
2023-02-14T05:57:02.211Z,9.37
2023-02-14T05:59:30.207Z,8.90
2023-02-14T06:01:58.210Z,10.10
2023-02-14T06:04:26.455Z,9.40
2023-02-14T06:06:54.615Z,9.10
2023-02-14T06:09:23.963Z,10.13
2023-02-14T06:11:53.753Z,9.70
2023-02-14T06:14:23.322Z,12.37
2023-02-14T06:16:51.785Z,11.10
2023-02-14T06:19:20.077Z,12.97
2023-02-14T06:21:48.315Z,12.40
2023-02-14T06:24:16.436Z,14.10
2023-02-14T06:26:45.878Z,12.97
2023-02-14T06:29:13.856Z,12.23
2023-02-14T06:31:42.063Z,12.20
2023-02-14T06:34:10.319Z,15.63
2023-02-14T06:36:38.752Z,13.13
2023-02-14T06:39:06.726Z,13.20
2023-02-14T06:41:34.732Z,11.57
2023-02-14T06:44:06.130Z,24.47
2023-02-14T06:46:34.170Z,11.20
2023-02-14T06:49:02.189Z,10.77
2023-02-14T06:51:30.187Z,12.57
2023-02-14T06:53:58.283Z,11.70
2023-02-14T06:56:26.315Z,12.33
2023-02-14T06:58:54.287Z,12.57
2023-02-14T07:01:23.653Z,13.53
2023-02-14T07:03:51.829Z,13.13
2023-02-14T07:06:19.955Z,13.10
2023-02-14T07:08:48.031Z,15.03
2023-02-14T07:11:16.089Z,13.80
2023-02-14T07:13:44.940Z,13.47
2023-02-14T07:16:13.072Z,12.40
2023-02-14T07:18:42.499Z,12.50
2023-02-14T07:21:10.517Z,13.30
2023-02-14T07:23:38.636Z,13.20
2023-02-14T07:26:06.910Z,13.43
2023-02-14T07:28:35.005Z,13.40
2023-02-14T07:31:03.614Z,12.23
2023-02-14T07:33:31.950Z,13.27
2023-02-14T07:36:05.619Z,15.67
2023-02-14T07:38:33.609Z,6.03
2023-02-14T07:41:01.851Z,6.70
2023-02-14T07:43:29.948Z,5.27
2023-02-14T07:45:58.075Z,5.83
2023-02-14T07:48:26.891Z,7.40
2023-02-14T07:50:57.993Z,7.83
2023-02-14T07:53:27.754Z,8.30
2023-02-14T07:55:55.916Z,8.70
2023-02-14T07:58:24.073Z,9.90
2023-02-14T08:00:52.457Z,9.83
2023-02-14T08:03:20.446Z,9.63
2023-02-14T08:05:57.131Z,10.43
2023-02-14T08:08:28.662Z,12.40
2023-02-14T08:10:56.906Z,12.73
2023-02-14T08:13:23.990Z,13.50
2023-02-14T08:16:07.649Z,29.83
2023-02-14T08:18:37.714Z,37.17
2023-02-14T08:21:07.048Z,36.90
2023-02-14T08:23:36.865Z,36.50
2023-02-14T08:26:05.119Z,37.60
2023-02-14T08:28:33.550Z,39.40
2023-02-14T08:31:01.946Z,37.73
2023-02-14T08:33:30.365Z,35.63
2023-02-14T08:35:58.482Z,34.40
2023-02-14T08:38:26.523Z,33.17
2023-02-14T08:40:56.138Z,31.37
2023-02-14T08:43:24.252Z,33.87
2023-02-14T08:45:56.284Z,37.53
2023-02-14T08:48:26.712Z,41.60
2023-02-14T08:50:54.703Z,37.97
2023-02-14T08:53:23.133Z,39.27
2023-02-14T08:55:51.109Z,42.70
2023-02-14T08:58:20.498Z,17.60
2023-02-14T09:00:48.483Z,16.97
2023-02-14T09:03:16.511Z,17.20
2023-02-14T09:05:44.560Z,17.03
2023-02-14T09:08:12.569Z,23.27
2023-02-14T09:10:40.588Z,19.30
2023-02-14T09:13:08.591Z,16.70
2023-02-14T09:15:38.031Z,23.77
2023-02-14T09:18:06.220Z,20.20
2023-02-14T09:20:34.287Z,22.27
2023-02-14T09:23:02.283Z,22.50
2023-02-14T09:25:30.384Z,23.17
2023-02-14T09:27:58.372Z,22.90
2023-02-14T09:30:26.476Z,44.37
2023-02-14T09:32:56.113Z,44.10
2023-02-14T09:35:41.602Z,42.50
2023-02-14T09:38:17.956Z,43.60
2023-02-14T09:40:46.481Z,42.50
2023-02-14T09:43:19.521Z,42.27
2023-02-14T09:45:52.548Z,41.10
2023-02-14T09:48:28.351Z,42.50
2023-02-14T09:50:59.747Z,40.20
2023-02-14T09:53:30.281Z,42.77
2023-02-14T09:56:07.730Z,40.27
2023-02-14T09:58:41.646Z,30.37
2023-02-14T10:01:16.748Z,27.57
2023-02-14T10:03:58.963Z,31.97
2023-02-14T10:06:49.902Z,26.57
2023-02-14T10:09:50.193Z,44.10
2023-02-14T10:12:23.882Z,43.43
2023-02-14T10:14:54.108Z,43.07
2023-02-14T10:17:29.488Z,43.13
2023-02-14T10:20:03.602Z,40.37
2023-02-14T10:22:42.295Z,42.57
2023-02-14T10:25:21.940Z,43.27
2023-02-14T10:27:50.303Z,45.23
2023-02-14T10:30:21.292Z,46.40
2023-02-14T10:32:51.917Z,44.33
2023-02-14T10:35:36.674Z,42.70
2023-02-14T10:38:17.610Z,45.90
2023-02-14T10:41:02.610Z,46.77
2023-02-14T10:43:38.144Z,53.53
2023-02-14T10:46:16.510Z,47.13
2023-02-14T10:48:54.741Z,47.43
2023-02-14T10:51:33.513Z,49.40
2023-02-14T10:54:14.996Z,42.17
2023-02-14T10:56:46.752Z,47.80
2023-02-14T10:59:23.378Z,44.83
2023-02-14T11:01:54.173Z,44.00
2023-02-14T11:04:24.683Z,41.37
2023-02-14T11:06:54.544Z,41.70
2023-02-14T11:09:22.912Z,40.60
2023-02-14T11:11:54.204Z,44.03
2023-02-14T11:14:26.853Z,41.73
2023-02-14T11:16:56.493Z,180.87
2023-02-14T11:19:27.025Z,17.70
2023-02-14T11:21:58.018Z,17.77
2023-02-14T11:24:33.565Z,18.30
2023-02-14T11:27:04.835Z,18.33
2023-02-14T11:29:37.391Z,18.37
2023-02-14T11:32:10.356Z,18.30
2023-02-14T11:34:41.092Z,17.80
2023-02-14T11:37:28.416Z,18.00
2023-02-14T11:39:59.102Z,18.20
2023-02-14T11:42:54.582Z,18.57
2023-02-14T11:45:32.325Z,26.70
2023-02-14T11:48:19.991Z,18.10
2023-02-14T11:50:58.439Z,19.30
2023-02-14T11:53:32.819Z,18.20
2023-02-14T11:56:01.118Z,17.40
2023-02-14T11:58:37.569Z,21.90
2023-02-14T12:01:06.384Z,20.23
2023-02-14T12:03:40.870Z,20.33
2023-02-14T12:06:09.048Z,22.27
2023-02-14T12:08:39.528Z,21.40
2023-02-14T12:11:19.102Z,22.73
2023-02-14T12:13:54.663Z,20.83
2023-02-14T12:16:28.387Z,23.33
2023-02-14T12:19:00.702Z,20.27
2023-02-14T12:21:45.310Z,18.70
2023-02-14T12:24:21.470Z,20.13
2023-02-14T12:26:57.118Z,20.40
2023-02-14T12:29:31.332Z,22.13
2023-02-14T12:32:02.683Z,20.80
2023-02-14T12:34:31.251Z,21.30
2023-02-14T12:37:13.158Z,21.23
2023-02-14T12:39:59.963Z,22.07
2023-02-14T12:42:43.814Z,21.40
2023-02-14T12:45:21.030Z,20.53
2023-02-14T12:48:01.225Z,18.63
2023-02-14T12:50:44.908Z,36.57
2023-02-14T12:53:32.101Z,22.67
2023-02-14T12:56:08.257Z,22.70
2023-02-14T12:58:45.059Z,29.17
2023-02-14T13:01:39.289Z,23.20
2023-02-14T13:04:29.710Z,21.17
2023-02-14T13:07:05.813Z,20.57
2023-02-14T13:09:42.357Z,23.57
2023-02-14T13:12:29.745Z,22.93
2023-02-14T13:15:12.813Z,25.77
2023-02-14T13:17:46.008Z,22.80
2023-02-14T13:20:42.546Z,26.40
2023-02-14T13:23:16.765Z,24.40
2023-02-14T13:25:50.680Z,31.60
2023-02-14T13:28:22.498Z,28.47
2023-02-14T13:30:50.766Z,24.53
2023-02-14T13:33:34.943Z,22.00
2023-02-14T13:36:07.795Z,22.97
2023-02-14T13:38:44.794Z,25.10
2023-02-14T13:41:14.158Z,21.17
2023-02-14T13:43:56.317Z,34.10
2023-02-14T13:46:53.166Z,25.67
2023-02-14T13:49:31.807Z,30.90
2023-02-14T13:52:03.628Z,40.77
2023-02-14T13:54:38.760Z,26.20
2023-02-14T13:57:26.944Z,24.30
2023-02-14T14:00:25.439Z,44.93
2023-02-14T14:02:55.040Z,32.67
2023-02-14T14:06:02.608Z,46.13
2023-02-14T14:08:45.858Z,36.63
2023-02-14T14:12:01.852Z,40.13
2023-02-14T14:14:39.906Z,39.53
2023-02-14T14:17:27.586Z,35.20
2023-02-14T14:20:00.439Z,43.07
2023-02-14T14:22:29.785Z,40.30
2023-02-14T14:25:00.622Z,34.03
2023-02-14T14:27:33.032Z,42.43
2023-02-14T14:30:02.758Z,41.03
2023-02-14T14:32:34.510Z,23.57
2023-02-14T14:35:05.076Z,21.83
2023-02-14T14:37:35.358Z,25.50
2023-02-14T14:40:06.081Z,24.70
2023-02-14T14:42:38.721Z,24.93
2023-02-14T14:45:10.722Z,24.70
2023-02-14T14:47:43.985Z,26.43
2023-02-14T14:50:18.718Z,22.63
2023-02-14T14:52:49.865Z,23.03
2023-02-14T14:55:21.870Z,24.10
2023-02-14T14:57:52.539Z,24.30
2023-02-14T15:00:24.379Z,25.10
2023-02-14T15:03:14.774Z,26.90
2023-02-14T15:05:45.602Z,26.17
2023-02-14T15:08:18.122Z,23.60
2023-02-14T15:10:50.779Z,23.97
2023-02-14T15:13:36.500Z,22.63
2023-02-14T15:16:04.784Z,26.67
2023-02-14T15:18:34.271Z,27.03
2023-02-14T15:21:10.754Z,27.80
2023-02-14T15:23:38.819Z,25.30
2023-02-14T15:26:07.020Z,26.33
2023-02-14T15:28:38.546Z,25.30
2023-02-14T15:31:07.970Z,27.17
2023-02-14T15:33:37.974Z,24.03
2023-02-14T15:36:10.100Z,22.87
2023-02-14T15:38:42.034Z,28.50
2023-02-14T15:41:11.163Z,24.83
2023-02-14T15:43:40.081Z,25.67
2023-02-14T15:46:21.197Z,23.30
2023-02-14T15:48:51.583Z,20.10
2023-02-14T15:51:22.530Z,20.20
2023-02-14T15:53:54.263Z,21.17
2023-02-14T15:56:26.069Z,20.80
2023-02-14T15:59:00.873Z,19.90
2023-02-14T16:01:29.870Z,19.07
2023-02-14T16:04:02.693Z,20.97
2023-02-14T16:06:34.530Z,22.43
2023-02-14T16:09:03.649Z,20.23
2023-02-14T16:11:35.482Z,23.77
2023-02-14T16:14:22.178Z,21.33
2023-02-14T16:17:03.933Z,18.80
2023-02-14T16:19:41.490Z,18.93
2023-02-14T16:22:10.790Z,19.73
2023-02-14T16:24:38.974Z,19.87
2023-02-14T16:27:13.277Z,18.37
2023-02-14T16:29:41.567Z,18.10
2023-02-14T16:32:16.965Z,20.90
2023-02-14T16:34:48.420Z,18.70
2023-02-14T16:37:22.352Z,21.40
2023-02-14T16:39:51.186Z,19.03
2023-02-14T16:42:20.156Z,25.80
2023-02-14T16:44:48.637Z,20.37
2023-02-14T16:47:18.402Z,19.73
2023-02-14T16:49:48.665Z,19.57
2023-02-14T16:52:20.676Z,20.03
2023-02-14T16:54:49.873Z,20.10
2023-02-14T16:57:21.581Z,20.70
2023-02-14T16:59:50.353Z,19.80
2023-02-14T17:02:21.546Z,20.70
2023-02-14T17:04:50.956Z,23.43
2023-02-14T17:07:19.076Z,24.77
2023-02-14T17:09:51.909Z,28.30
2023-02-14T17:12:30.376Z,26.83
2023-02-14T17:15:02.978Z,24.70
2023-02-14T17:17:31.485Z,25.27
2023-02-14T17:20:00.881Z,25.00
2023-02-14T17:22:28.840Z,25.40
2023-02-14T17:24:57.262Z,25.50
2023-02-14T17:27:25.287Z,24.67
2023-02-14T17:29:53.273Z,24.60
2023-02-14T17:32:21.320Z,24.63
2023-02-14T17:34:49.737Z,23.60
2023-02-14T17:37:19.380Z,24.10
2023-02-14T17:39:47.375Z,24.97
2023-02-14T17:42:15.381Z,24.00
2023-02-14T17:44:44.766Z,26.00
2023-02-14T17:47:14.793Z,25.73
2023-02-14T17:49:42.796Z,25.83
2023-02-14T17:52:10.810Z,25.30
2023-02-14T17:54:40.592Z,25.17
2023-02-14T17:57:08.587Z,25.17
2023-02-14T17:59:37.019Z,24.47
2023-02-14T18:02:05.107Z,25.83
2023-02-14T18:04:34.890Z,24.67
2023-02-14T18:07:02.939Z,25.03
2023-02-14T18:09:31.042Z,25.40
2023-02-14T18:12:00.421Z,25.13
2023-02-14T18:14:28.586Z,27.00
2023-02-14T18:16:56.528Z,26.97
2023-02-14T18:19:24.472Z,25.50
2023-02-14T18:21:53.457Z,26.10
2023-02-14T18:24:21.930Z,26.90
2023-02-14T18:26:50.147Z,25.80
2023-02-14T18:29:19.471Z,26.93
2023-02-14T18:31:47.712Z,26.43
2023-02-14T18:34:15.823Z,25.77
2023-02-14T18:36:43.861Z,26.03
2023-02-14T18:39:12.226Z,26.17
2023-02-14T18:41:40.252Z,26.03
2023-02-14T18:44:08.506Z,27.20
2023-02-14T18:46:38.174Z,24.07
2023-02-14T18:49:08.385Z,24.20
2023-02-14T18:51:39.310Z,26.03
2023-02-14T18:54:08.150Z,23.83
2023-02-14T18:56:38.028Z,23.77
2023-02-14T18:59:08.721Z,25.87
2023-02-14T19:01:40.704Z,22.17
2023-02-14T19:04:12.047Z,22.43
2023-02-14T19:06:41.859Z,21.53
2023-02-14T19:09:12.549Z,21.40
2023-02-14T19:11:41.031Z,21.57
2023-02-14T19:14:10.920Z,21.10
2023-02-14T19:16:43.867Z,20.97
2023-02-14T19:19:12.210Z,44.97
2023-02-14T19:21:40.257Z,45.93
2023-02-14T19:24:09.094Z,47.13
2023-02-14T19:26:42.235Z,46.80
2023-02-14T19:29:12.565Z,47.47
2023-02-14T19:31:45.136Z,46.47
2023-02-14T19:34:18.050Z,48.10
2023-02-14T19:36:46.269Z,46.30
2023-02-14T19:39:14.645Z,46.97
2023-02-14T19:41:43.387Z,49.80
2023-02-14T19:44:14.258Z,48.00
2023-02-14T19:46:44.482Z,47.13
2023-02-14T19:49:15.439Z,22.30
2023-02-14T19:51:43.870Z,22.47
2023-02-14T19:54:12.681Z,21.80
2023-02-14T19:56:43.637Z,23.57
2023-02-14T19:59:14.363Z,20.77
2023-02-14T20:01:46.350Z,20.53
2023-02-14T20:04:16.593Z,22.00
2023-02-14T20:06:45.950Z,22.53
2023-02-14T20:09:15.796Z,21.53
2023-02-14T20:11:50.114Z,21.37
2023-02-14T20:14:19.866Z,20.87
2023-02-14T20:16:50.069Z,21.50
2023-02-14T20:19:20.227Z,21.93
2023-02-14T20:21:51.304Z,20.70
2023-02-14T20:24:21.512Z,21.23
2023-02-14T20:26:50.020Z,18.40
2023-02-14T20:29:19.706Z,19.40
2023-02-14T20:31:51.658Z,18.97
2023-02-14T20:34:20.396Z,19.23
2023-02-14T20:36:53.096Z,20.63
2023-02-14T20:39:24.259Z,19.97
2023-02-14T20:41:53.941Z,20.60
2023-02-14T20:44:22.614Z,20.87
2023-02-14T20:46:53.631Z,20.70
2023-02-14T20:49:22.799Z,19.90
2023-02-14T20:51:51.937Z,19.33
2023-02-14T20:54:21.346Z,18.80
2023-02-14T20:56:50.798Z,18.27
2023-02-14T20:59:24.374Z,20.40
2023-02-14T21:01:53.953Z,19.73
2023-02-14T21:04:22.014Z,18.33
2023-02-14T21:06:50.082Z,41.33
2023-02-14T21:09:20.466Z,40.67
2023-02-14T21:11:49.600Z,43.13
2023-02-14T21:14:18.132Z,41.87
2023-02-14T21:16:46.203Z,40.47
2023-02-14T21:19:17.654Z,42.73
2023-02-14T21:21:45.937Z,41.50
2023-02-14T21:24:15.898Z,41.47
2023-02-14T21:26:44.787Z,42.40
2023-02-14T21:29:12.776Z,42.20
2023-02-14T21:31:42.459Z,41.73
2023-02-14T21:34:10.770Z,18.10
2023-02-14T21:36:40.088Z,18.47
2023-02-14T21:39:08.707Z,18.13
2023-02-14T21:41:38.133Z,18.53
2023-02-14T21:44:07.165Z,18.40
2023-02-14T21:46:38.354Z,18.50
2023-02-14T21:49:24.738Z,18.53
2023-02-14T21:51:54.137Z,18.43
2023-02-14T21:54:22.434Z,18.87
2023-02-14T21:56:50.454Z,19.47
2023-02-14T21:59:18.684Z,18.90
2023-02-14T22:01:46.761Z,18.63
2023-02-14T22:04:14.845Z,18.50
2023-02-14T22:06:43.769Z,19.30
2023-02-14T22:09:15.112Z,18.70
2023-02-14T22:11:43.109Z,19.87
2023-02-14T22:14:11.277Z,19.10
2023-02-14T22:16:39.321Z,17.97
2023-02-14T22:19:08.897Z,18.70
2023-02-14T22:21:40.014Z,18.63
2023-02-14T22:24:08.189Z,19.30
2023-02-14T22:26:40.813Z,18.87
2023-02-14T22:29:10.920Z,18.03
2023-02-14T22:31:41.647Z,19.53
2023-02-14T22:34:11.854Z,18.80
2023-02-14T22:36:39.837Z,18.80
2023-02-14T22:39:09.461Z,19.77
2023-02-14T22:41:38.905Z,18.87
2023-02-14T22:44:07.918Z,18.60
2023-02-14T22:46:37.736Z,18.80
2023-02-14T22:49:06.584Z,19.23
2023-02-14T22:51:36.982Z,20.43
2023-02-14T22:54:07.300Z,20.20
2023-02-14T22:56:39.117Z,33.63
2023-02-14T22:59:09.192Z,42.57
2023-02-14T23:01:37.564Z,43.57
2023-02-14T23:04:06.489Z,42.17
2023-02-14T23:06:36.639Z,42.13
2023-02-14T23:09:05.668Z,42.37
2023-02-14T23:11:35.890Z,43.40
2023-02-14T23:14:23.688Z,44.60
2023-02-14T23:17:21.011Z,42.43
2023-02-14T23:20:06.972Z,41.63
2023-02-14T23:22:37.646Z,18.90
2023-02-14T23:25:08.669Z,19.00
2023-02-14T23:27:38.595Z,18.70
2023-02-14T23:30:09.905Z,18.67
2023-02-14T23:32:38.222Z,18.20
2023-02-14T23:35:07.006Z,20.60
2023-02-14T23:37:35.035Z,18.40
2023-02-14T23:40:03.930Z,18.27
2023-02-14T23:42:32.164Z,18.00
2023-02-14T23:45:20.303Z,18.53
2023-02-14T23:47:50.041Z,18.13
2023-02-14T23:50:18.295Z,19.10
2023-02-14T23:52:46.270Z,17.87
2023-02-14T23:55:14.469Z,18.53
2023-02-14T23:57:42.441Z,18.43
